createdAt,value
2023-05-15T00:02:04.743Z,4.35
2023-05-15T00:04:33.443Z,5.80
2023-05-15T00:07:02.051Z,5.85
2023-05-15T00:09:30.349Z,4.05
2023-05-15T00:11:58.944Z,5.43
2023-05-15T00:14:27.181Z,5.50
2023-05-15T00:16:56.073Z,4.85
2023-05-15T00:19:24.204Z,3.78
2023-05-15T00:21:53.090Z,4.70
2023-05-15T00:24:22.125Z,5.38
2023-05-15T00:26:51.081Z,4.28
2023-05-15T00:29:19.778Z,6.90
2023-05-15T00:31:48.348Z,6.28
2023-05-15T00:34:16.567Z,6.20
2023-05-15T00:36:45.158Z,4.47
2023-05-15T00:39:13.538Z,6.20
2023-05-15T00:41:43.639Z,3.35
2023-05-15T00:44:12.376Z,6.10
2023-05-15T00:46:42.014Z,4.65
2023-05-15T00:49:13.776Z,3.88
2023-05-15T00:51:42.642Z,145.70
2023-05-15T00:54:11.606Z,6.30
2023-05-15T00:56:40.480Z,5.10
2023-05-15T00:59:09.175Z,4.22
2023-05-15T01:01:37.986Z,5.95
2023-05-15T01:04:06.355Z,5.10
2023-05-15T01:06:35.038Z,4.50
2023-05-15T01:09:04.251Z,6.47
2023-05-15T01:11:38.607Z,4.80
2023-05-15T01:14:08.862Z,9.25
2023-05-15T01:16:37.934Z,4.50
2023-05-15T01:19:06.238Z,4.82
2023-05-15T01:21:36.305Z,5.00
2023-05-15T01:24:38.794Z,3.78
2023-05-15T01:27:29.057Z,4.82
2023-05-15T01:30:15.343Z,3.75
2023-05-15T01:33:02.294Z,4.38
2023-05-15T01:35:47.100Z,6.47
2023-05-15T01:38:22.474Z,5.22
2023-05-15T01:41:10.530Z,2.78
2023-05-15T01:43:43.631Z,5.78
2023-05-15T01:46:16.483Z,6.30
2023-05-15T01:48:46.298Z,3.55
2023-05-15T01:51:15.018Z,5.20
2023-05-15T01:53:45.773Z,4.50
2023-05-15T01:56:15.601Z,3.33
2023-05-15T01:58:44.672Z,4.95
2023-05-15T02:01:14.208Z,5.55
2023-05-15T02:03:45.101Z,3.83
2023-05-15T02:06:14.419Z,3.10
2023-05-15T02:08:43.804Z,5.32
2023-05-15T02:11:13.483Z,5.57
2023-05-15T02:13:43.036Z,5.07
2023-05-15T02:16:11.764Z,4.88
2023-05-15T02:18:40.031Z,6.38
2023-05-15T02:21:08.803Z,3.45
2023-05-15T02:23:37.723Z,4.05
2023-05-15T02:26:31.432Z,4.75
2023-05-15T02:28:59.941Z,4.10
2023-05-15T02:31:41.175Z,6.15
2023-05-15T02:34:26.955Z,6.47
2023-05-15T02:36:57.057Z,5.33
2023-05-15T02:39:26.644Z,8.70
2023-05-15T02:41:55.024Z,4.47
2023-05-15T02:44:23.855Z,6.45
2023-05-15T02:46:53.784Z,5.15
2023-05-15T02:49:22.907Z,5.82
2023-05-15T02:51:51.443Z,3.20
2023-05-15T02:54:20.402Z,3.58
2023-05-15T02:56:48.692Z,4.18
2023-05-15T02:59:20.044Z,6.10
2023-05-15T03:01:48.818Z,6.18
2023-05-15T03:04:17.647Z,7.82
2023-05-15T03:06:45.960Z,5.00
2023-05-15T03:09:14.503Z,6.47
2023-05-15T03:11:42.921Z,3.65
2023-05-15T03:14:11.536Z,7.53
2023-05-15T03:16:39.938Z,3.47
2023-05-15T03:19:08.622Z,6.03
2023-05-15T03:21:36.810Z,4.30
2023-05-15T03:24:05.203Z,4.88
2023-05-15T03:26:33.663Z,4.22
2023-05-15T03:29:02.718Z,4.93
2023-05-15T03:31:30.989Z,4.88
2023-05-15T03:33:59.612Z,3.88
2023-05-15T03:36:27.614Z,4.47
2023-05-15T03:38:56.250Z,3.92
2023-05-15T03:41:26.140Z,3.83
2023-05-15T03:43:54.856Z,3.63
2023-05-15T03:46:23.082Z,8.40
2023-05-15T03:48:51.305Z,5.55
2023-05-15T03:51:19.739Z,6.65
2023-05-15T03:53:48.463Z,3.88
2023-05-15T03:56:16.660Z,4.35
2023-05-15T03:58:45.174Z,6.50
2023-05-15T04:01:13.379Z,6.10
2023-05-15T04:03:42.067Z,5.35
2023-05-15T04:06:10.350Z,8.23
2023-05-15T04:08:39.715Z,5.53
2023-05-15T04:11:08.661Z,4.15
2023-05-15T04:13:37.190Z,5.70
2023-05-15T04:16:05.304Z,5.88
2023-05-15T04:18:33.630Z,5.15
2023-05-15T04:21:01.651Z,5.40
2023-05-15T04:23:29.930Z,7.30
2023-05-15T04:25:57.975Z,5.50
2023-05-15T04:28:26.429Z,3.97
2023-05-15T04:30:55.337Z,5.40
2023-05-15T04:33:23.636Z,7.90
2023-05-15T04:35:53.311Z,3.95
2023-05-15T04:38:21.818Z,4.10
2023-05-15T04:40:50.525Z,7.50
2023-05-15T04:43:19.097Z,4.85
2023-05-15T04:45:47.095Z,5.25
2023-05-15T04:48:16.131Z,5.88
2023-05-15T04:50:44.191Z,4.82
2023-05-15T04:53:12.803Z,6.00
2023-05-15T04:55:41.153Z,3.40
2023-05-15T04:58:09.842Z,8.43
2023-05-15T05:00:38.391Z,8.70
2023-05-15T05:03:06.871Z,18.63
2023-05-15T05:05:35.371Z,6.63
2023-05-15T05:08:04.216Z,4.95
2023-05-15T05:10:32.371Z,5.63
2023-05-15T05:13:00.904Z,7.80
2023-05-15T05:15:29.101Z,8.27
2023-05-15T05:17:57.810Z,6.70
2023-05-15T05:20:26.702Z,7.13
2023-05-15T05:22:55.215Z,3.97
2023-05-15T05:25:23.312Z,8.70
2023-05-15T05:27:52.141Z,7.90
2023-05-15T05:30:20.240Z,10.85
2023-05-15T05:32:48.642Z,12.82
2023-05-15T05:35:17.145Z,6.93
2023-05-15T05:37:45.472Z,8.55
2023-05-15T05:40:13.592Z,5.38
2023-05-15T05:42:42.544Z,5.95
2023-05-15T05:45:11.560Z,6.65
2023-05-15T05:47:40.128Z,7.45
2023-05-15T05:50:08.879Z,8.50
2023-05-15T05:52:37.185Z,5.45
2023-05-15T05:55:05.576Z,9.82
2023-05-15T05:57:34.117Z,9.02
2023-05-15T06:00:02.390Z,12.50
2023-05-15T06:02:38.370Z,6.97
2023-05-15T06:05:07.667Z,6.13
2023-05-15T06:07:35.913Z,9.48
2023-05-15T06:10:04.145Z,7.53
2023-05-15T06:12:32.534Z,5.55
2023-05-15T06:15:00.683Z,7.85
2023-05-15T06:17:29.337Z,7.80
2023-05-15T06:19:57.593Z,9.27
2023-05-15T06:22:25.844Z,11.60
2023-05-15T06:24:53.795Z,11.60
2023-05-15T06:27:22.474Z,7.95
2023-05-15T06:29:50.319Z,14.82
2023-05-15T06:32:19.072Z,11.00
2023-05-15T06:34:47.321Z,17.63
2023-05-15T06:37:15.614Z,6.40
2023-05-15T06:39:43.574Z,6.05
2023-05-15T06:42:11.862Z,10.38
2023-05-15T06:44:42.388Z,8.50
2023-05-15T06:47:10.881Z,6.65
2023-05-15T06:49:38.926Z,9.35
2023-05-15T06:52:07.421Z,8.38
2023-05-15T06:54:35.525Z,7.05
2023-05-15T06:57:03.988Z,14.07
2023-05-15T06:59:34.591Z,10.23
2023-05-15T07:02:03.878Z,6.38
2023-05-15T07:04:32.719Z,6.10
2023-05-15T07:07:00.939Z,13.45
2023-05-15T07:09:29.091Z,15.70
2023-05-15T07:11:57.300Z,10.38
2023-05-15T07:14:25.305Z,12.10
2023-05-15T07:16:53.858Z,6.50
2023-05-15T07:19:22.719Z,7.00
2023-05-15T07:21:51.604Z,10.43
2023-05-15T07:24:21.383Z,10.63
2023-05-15T07:26:58.034Z,9.75
2023-05-15T07:29:27.089Z,10.15
2023-05-15T07:31:55.686Z,6.53
2023-05-15T07:34:24.092Z,7.30
2023-05-15T07:36:52.257Z,9.05
2023-05-15T07:39:20.467Z,7.05
2023-05-15T07:41:49.055Z,9.30
2023-05-15T07:44:17.198Z,7.32
2023-05-15T07:46:45.819Z,10.43
2023-05-15T07:49:14.018Z,6.88
2023-05-15T07:51:43.044Z,12.05
2023-05-15T07:54:10.974Z,7.00
2023-05-15T07:56:39.279Z,4.55
2023-05-15T07:59:07.840Z,5.13
2023-05-15T08:01:36.268Z,7.72
2023-05-15T08:04:07.891Z,6.80
2023-05-15T08:06:39.854Z,10.27
2023-05-15T08:09:08.429Z,9.93
2023-05-15T08:11:37.026Z,9.00
2023-05-15T08:14:05.279Z,8.38
2023-05-15T08:16:36.136Z,9.32
2023-05-15T08:19:06.985Z,8.63
2023-05-15T08:21:35.423Z,6.78
2023-05-15T08:24:03.553Z,8.32
2023-05-15T08:26:33.141Z,12.38
2023-05-15T08:29:03.840Z,6.75
2023-05-15T08:31:36.520Z,9.45
2023-05-15T08:34:06.118Z,7.10
2023-05-15T08:36:37.730Z,7.72
2023-05-15T08:39:09.424Z,10.98
2023-05-15T08:41:58.087Z,8.40
2023-05-15T08:44:28.289Z,7.55
2023-05-15T08:46:58.675Z,9.63
2023-05-15T08:49:56.366Z,8.07
2023-05-15T08:52:27.146Z,7.15
2023-05-15T08:54:57.262Z,7.45
2023-05-15T08:57:28.746Z,7.50
2023-05-15T09:00:00.192Z,9.15
2023-05-15T09:02:29.370Z,10.18
2023-05-15T09:04:57.537Z,8.05
2023-05-15T09:07:26.478Z,10.70
2023-05-15T09:09:55.907Z,10.23
2023-05-15T09:12:26.121Z,8.60
2023-05-15T09:15:17.334Z,8.63
2023-05-15T09:17:46.115Z,13.05
2023-05-15T09:20:35.255Z,8.25
2023-05-15T09:23:05.097Z,9.70
2023-05-15T09:25:34.520Z,10.57
2023-05-15T09:28:02.767Z,10.15
2023-05-15T09:30:31.452Z,8.32
2023-05-15T09:33:04.825Z,10.75
2023-05-15T09:35:40.716Z,12.00
2023-05-15T09:38:11.636Z,12.77
2023-05-15T09:40:43.033Z,13.98
2023-05-15T09:43:12.338Z,10.27
2023-05-15T09:45:40.597Z,13.10
2023-05-15T09:48:12.121Z,10.32
2023-05-15T09:50:41.214Z,10.43
2023-05-15T09:53:14.530Z,9.77
2023-05-15T09:55:44.005Z,11.95
2023-05-15T09:58:13.688Z,8.90
2023-05-15T10:00:48.673Z,8.20
2023-05-15T10:03:22.010Z,8.15
2023-05-15T10:05:50.908Z,10.00
2023-05-15T10:08:28.368Z,9.13
2023-05-15T10:10:59.761Z,11.90
2023-05-15T10:13:31.780Z,10.30
2023-05-15T10:16:00.477Z,8.30
2023-05-15T10:18:30.760Z,10.15
2023-05-15T10:21:01.385Z,8.48
2023-05-15T10:23:35.687Z,8.90
2023-05-15T10:26:07.686Z,9.02
2023-05-15T10:28:36.968Z,8.02
2023-05-15T10:31:05.563Z,7.72
2023-05-15T10:33:34.913Z,9.70
2023-05-15T10:36:04.622Z,8.05
2023-05-15T10:38:34.313Z,7.85
2023-05-15T10:41:16.112Z,11.50
2023-05-15T10:43:47.259Z,9.57
2023-05-15T10:46:16.160Z,8.13
2023-05-15T10:48:44.846Z,8.15
2023-05-15T10:51:19.266Z,7.72
2023-05-15T10:53:48.086Z,8.85
2023-05-15T10:56:19.393Z,7.82
2023-05-15T10:58:49.571Z,6.60
2023-05-15T11:01:29.545Z,8.05
2023-05-15T11:04:17.994Z,6.63
2023-05-15T11:06:50.340Z,7.75
2023-05-15T11:09:27.461Z,8.35
2023-05-15T11:11:58.022Z,11.05
2023-05-15T11:14:27.800Z,7.03
2023-05-15T11:17:03.825Z,7.10
2023-05-15T11:19:37.709Z,6.40
2023-05-15T11:22:08.951Z,6.20
2023-05-15T11:25:03.237Z,6.15
2023-05-15T11:27:32.273Z,32.08
2023-05-15T11:30:22.864Z,6.53
2023-05-15T11:32:56.502Z,8.20
2023-05-15T11:35:34.376Z,7.72
2023-05-15T11:38:18.072Z,7.40
2023-05-15T11:40:57.160Z,8.38
2023-05-15T11:43:27.214Z,8.60
2023-05-15T11:46:04.409Z,7.60
2023-05-15T11:48:49.273Z,7.47
2023-05-15T11:51:22.484Z,7.80
2023-05-15T11:53:54.713Z,7.25
2023-05-15T11:56:28.702Z,9.13
2023-05-15T11:58:59.069Z,8.43
2023-05-15T12:01:29.472Z,7.32
2023-05-15T12:03:57.817Z,7.43
2023-05-15T12:06:26.797Z,7.32
2023-05-15T12:08:56.782Z,9.30
2023-05-15T12:11:26.365Z,6.57
2023-05-15T12:13:55.085Z,8.90
2023-05-15T12:16:27.742Z,8.07
2023-05-15T12:18:59.332Z,8.38
2023-05-15T12:21:28.176Z,9.57
2023-05-15T12:24:07.131Z,11.90
2023-05-15T12:26:37.257Z,7.82
2023-05-15T12:29:05.886Z,8.75
2023-05-15T12:31:38.647Z,8.48
2023-05-15T12:34:07.000Z,8.95
2023-05-15T12:36:37.368Z,9.27
2023-05-15T12:39:08.244Z,8.35
2023-05-15T12:41:39.596Z,8.93
2023-05-15T12:44:15.903Z,9.02
2023-05-15T12:46:46.617Z,9.63
2023-05-15T12:49:21.133Z,10.13
2023-05-15T12:51:49.926Z,9.98
2023-05-15T12:54:21.772Z,10.10
2023-05-15T12:56:50.427Z,9.77
2023-05-15T12:59:19.413Z,11.88
2023-05-15T13:01:47.932Z,16.17
2023-05-15T13:04:16.745Z,11.02
2023-05-15T13:06:47.846Z,12.77
2023-05-15T13:09:22.891Z,12.48
2023-05-15T13:11:51.146Z,8.90
2023-05-15T13:14:19.621Z,10.20
2023-05-15T13:16:48.089Z,11.88
2023-05-15T13:19:16.956Z,13.23
2023-05-15T13:21:45.784Z,17.33
2023-05-15T13:24:13.927Z,23.77
2023-05-15T13:26:42.554Z,9.80
2023-05-15T13:29:12.653Z,14.43
2023-05-15T13:31:40.933Z,16.58
2023-05-15T13:34:09.229Z,23.15
2023-05-15T13:36:38.110Z,12.63
2023-05-15T13:39:06.765Z,53.65
2023-05-15T13:41:36.918Z,10.90
2023-05-15T13:44:04.991Z,12.98
2023-05-15T13:46:33.600Z,10.05
2023-05-15T13:49:01.990Z,9.75
2023-05-15T13:51:30.204Z,13.13
2023-05-15T13:53:58.338Z,11.88
2023-05-15T13:56:26.629Z,11.63
2023-05-15T13:58:54.639Z,11.13
2023-05-15T14:01:23.143Z,11.13
2023-05-15T14:03:51.343Z,9.77
2023-05-15T14:06:21.678Z,9.80
2023-05-15T14:08:49.852Z,15.95
2023-05-15T14:11:18.274Z,17.67
2023-05-15T14:13:47.564Z,12.38
2023-05-15T14:16:15.730Z,14.85
2023-05-15T14:18:43.724Z,23.52
2023-05-15T14:21:12.162Z,11.05
2023-05-15T14:23:40.226Z,12.00
2023-05-15T14:26:08.544Z,9.25
2023-05-15T14:28:36.788Z,8.32
2023-05-15T14:31:07.717Z,8.63
2023-05-15T14:33:36.021Z,16.27
2023-05-15T14:36:05.704Z,14.63
2023-05-15T14:38:38.487Z,9.98
2023-05-15T14:41:10.677Z,11.00
2023-05-15T14:43:41.097Z,14.18
2023-05-15T14:46:11.389Z,10.52
2023-05-15T14:48:39.693Z,13.38
2023-05-15T14:51:08.235Z,10.60
2023-05-15T14:53:36.350Z,10.88
2023-05-15T14:56:04.916Z,14.90
2023-05-15T14:58:33.137Z,34.67
2023-05-15T15:01:01.739Z,13.00
2023-05-15T15:03:33.297Z,11.52
2023-05-15T15:06:04.657Z,9.45
2023-05-15T15:08:32.999Z,10.40
2023-05-15T15:11:02.191Z,18.40
2023-05-15T15:13:30.266Z,38.88
2023-05-15T15:15:58.830Z,16.30
2023-05-15T15:18:26.819Z,15.77
2023-05-15T15:20:57.250Z,20.27
2023-05-15T15:23:26.274Z,40.58
2023-05-15T15:25:55.028Z,16.00
2023-05-15T15:28:23.313Z,17.10
2023-05-15T15:30:52.254Z,13.73
2023-05-15T15:33:20.708Z,17.30
2023-05-15T15:35:49.356Z,20.65
2023-05-15T15:38:19.104Z,20.17
2023-05-15T15:40:47.726Z,27.08
2023-05-15T15:43:16.636Z,16.77
2023-05-15T15:45:45.352Z,26.45
2023-05-15T15:48:16.127Z,31.50
2023-05-15T15:50:44.762Z,21.80
2023-05-15T15:53:14.996Z,25.92
2023-05-15T15:55:47.155Z,25.00
2023-05-15T15:58:19.934Z,44.05
2023-05-15T16:00:48.531Z,30.33
2023-05-15T16:03:16.974Z,32.83
2023-05-15T16:05:48.620Z,43.42
2023-05-15T16:08:16.810Z,26.60
2023-05-15T16:10:45.747Z,27.75
2023-05-15T16:13:14.770Z,26.60
2023-05-15T16:15:45.047Z,31.05
2023-05-15T16:18:13.693Z,24.45
2023-05-15T16:20:42.295Z,28.08
2023-05-15T16:23:15.469Z,34.50
2023-05-15T16:25:51.704Z,37.90
2023-05-15T16:28:20.160Z,41.40
2023-05-15T16:30:51.420Z,29.80
2023-05-15T16:33:20.987Z,34.78
2023-05-15T16:35:49.822Z,45.03
2023-05-15T16:38:19.465Z,19.67
2023-05-15T16:40:48.054Z,26.30
2023-05-15T16:43:16.807Z,26.70
2023-05-15T16:45:45.059Z,28.13
2023-05-15T16:48:13.322Z,31.50
2023-05-15T16:50:43.949Z,41.00
2023-05-15T16:53:17.507Z,43.78
2023-05-15T16:55:47.217Z,58.92
2023-05-15T16:58:15.846Z,49.45
2023-05-15T17:00:44.245Z,46.92
2023-05-15T17:03:12.977Z,62.72
2023-05-15T17:05:41.954Z,39.72
2023-05-15T17:08:11.236Z,24.33
2023-05-15T17:10:39.787Z,29.05
2023-05-15T17:13:08.256Z,25.40
2023-05-15T17:15:36.770Z,25.52
2023-05-15T17:18:05.810Z,23.13
2023-05-15T17:20:33.979Z,32.30
2023-05-15T17:23:02.985Z,27.92
2023-05-15T17:25:34.182Z,28.05
2023-05-15T17:28:02.487Z,26.90
2023-05-15T17:30:30.862Z,29.63
2023-05-15T17:33:00.603Z,28.10
2023-05-15T17:35:32.718Z,46.97
2023-05-15T17:38:01.635Z,35.85
2023-05-15T17:40:29.926Z,26.17
2023-05-15T17:42:58.009Z,26.40
2023-05-15T17:45:27.195Z,36.65
2023-05-15T17:48:02.652Z,32.42
2023-05-15T17:50:31.868Z,27.30
2023-05-15T17:52:59.873Z,28.10
2023-05-15T17:55:28.925Z,41.97
2023-05-15T17:57:56.772Z,23.30
2023-05-15T18:00:25.548Z,29.48
2023-05-15T18:02:53.967Z,35.30
2023-05-15T18:05:23.535Z,34.90
2023-05-15T18:07:51.689Z,29.95
2023-05-15T18:10:20.317Z,31.70
2023-05-15T18:12:48.267Z,28.98
2023-05-15T18:15:16.819Z,34.30
2023-05-15T18:17:45.424Z,62.60
2023-05-15T18:20:13.958Z,32.00
2023-05-15T18:22:43.438Z,40.60
2023-05-15T18:25:11.993Z,29.33
2023-05-15T18:27:40.780Z,24.33
2023-05-15T18:30:09.632Z,36.88
2023-05-15T18:32:38.207Z,40.22
2023-05-15T18:35:07.059Z,34.72
2023-05-15T18:37:35.360Z,27.80
2023-05-15T18:40:05.439Z,27.50
2023-05-15T18:42:33.978Z,38.05
2023-05-15T18:45:02.614Z,27.92
2023-05-15T18:47:32.590Z,36.25
2023-05-15T18:50:01.195Z,29.40
2023-05-15T18:52:29.449Z,43.35
2023-05-15T18:54:58.627Z,50.42
2023-05-15T18:57:27.306Z,47.67
2023-05-15T18:59:56.985Z,37.22
2023-05-15T19:02:26.416Z,57.08
2023-05-15T19:04:54.631Z,34.90
2023-05-15T19:07:24.095Z,46.67
2023-05-15T19:09:52.967Z,37.55
2023-05-15T19:12:21.237Z,57.13
2023-05-15T19:14:49.788Z,44.92
2023-05-15T19:17:20.346Z,45.58
2023-05-15T19:19:48.982Z,41.75
2023-05-15T19:22:17.674Z,41.45
2023-05-15T19:24:45.948Z,34.75
2023-05-15T19:27:14.146Z,34.20
2023-05-15T19:29:43.449Z,36.20
2023-05-15T19:32:11.713Z,31.15
2023-05-15T19:34:40.126Z,30.50
2023-05-15T19:37:08.385Z,31.33
2023-05-15T19:39:36.978Z,32.80
2023-05-15T19:42:05.304Z,34.28
2023-05-15T19:44:33.946Z,28.52
2023-05-15T19:47:02.016Z,36.00
2023-05-15T19:49:30.555Z,26.27
2023-05-15T19:51:58.981Z,27.98
2023-05-15T19:54:27.738Z,32.03
2023-05-15T19:56:57.816Z,33.42
2023-05-15T19:59:26.507Z,26.90
2023-05-15T20:01:54.945Z,24.92
2023-05-15T20:04:23.754Z,26.33
2023-05-15T20:06:51.957Z,24.00
2023-05-15T20:09:27.872Z,27.70
2023-05-15T20:11:56.566Z,31.50
2023-05-15T20:14:25.546Z,24.55
2023-05-15T20:16:53.720Z,26.10
2023-05-15T20:19:22.160Z,26.85
2023-05-15T20:21:51.051Z,26.20
2023-05-15T20:24:19.777Z,26.58
2023-05-15T20:26:47.813Z,25.27
2023-05-15T20:29:16.664Z,23.90
2023-05-15T20:31:45.843Z,31.27
2023-05-15T20:34:15.361Z,28.98
2023-05-15T20:36:43.982Z,24.75
2023-05-15T20:39:13.214Z,26.85
2023-05-15T20:41:41.606Z,24.42
2023-05-15T20:44:10.482Z,20.83
2023-05-15T20:46:43.625Z,31.58
2023-05-15T20:49:12.405Z,21.05
2023-05-15T20:51:41.825Z,79.35
2023-05-15T20:54:10.438Z,17.70
2023-05-15T20:56:38.385Z,24.30
2023-05-15T20:59:06.861Z,18.92
2023-05-15T21:01:34.891Z,23.55
2023-05-15T21:04:03.320Z,25.05
2023-05-15T21:06:31.381Z,30.17
2023-05-15T21:09:00.003Z,18.17
2023-05-15T21:11:29.405Z,16.23
2023-05-15T21:13:58.093Z,20.60
2023-05-15T21:16:26.344Z,16.67
2023-05-15T21:18:54.954Z,20.75
2023-05-15T21:21:23.464Z,17.80
2023-05-15T21:23:51.700Z,30.98
2023-05-15T21:26:20.122Z,19.88
2023-05-15T21:28:48.271Z,41.67
2023-05-15T21:31:16.248Z,22.27
2023-05-15T21:33:45.053Z,24.55
2023-05-15T21:36:13.541Z,21.45
2023-05-15T21:38:43.230Z,21.30
2023-05-15T21:41:11.901Z,20.15
2023-05-15T21:43:40.757Z,31.35
2023-05-15T21:46:08.763Z,18.27
2023-05-15T21:48:37.903Z,16.10
2023-05-15T21:51:08.016Z,25.85
2023-05-15T21:53:36.442Z,29.00
2023-05-15T21:56:04.854Z,15.55
2023-05-15T21:58:33.287Z,16.08
2023-05-15T22:01:01.546Z,16.23
2023-05-15T22:03:29.804Z,15.43
2023-05-15T22:05:57.954Z,16.48
2023-05-15T22:08:27.126Z,13.30
2023-05-15T22:10:55.832Z,12.77
2023-05-15T22:13:24.174Z,11.63
2023-05-15T22:15:52.165Z,13.70
2023-05-15T22:18:21.731Z,13.43
2023-05-15T22:20:50.666Z,12.82
2023-05-15T22:23:19.337Z,17.20
2023-05-15T22:25:49.432Z,14.07
2023-05-15T22:28:18.229Z,19.13
2023-05-15T22:30:46.418Z,14.23
2023-05-15T22:33:15.123Z,14.18
2023-05-15T22:35:43.212Z,24.67
2023-05-15T22:38:11.427Z,17.40
2023-05-15T22:40:39.484Z,13.30
2023-05-15T22:43:07.969Z,15.60
2023-05-15T22:45:36.162Z,23.25
2023-05-15T22:48:04.734Z,19.73
2023-05-15T22:50:32.979Z,13.07
2023-05-15T22:53:01.379Z,14.70
2023-05-15T22:55:29.644Z,12.77
2023-05-15T22:57:58.144Z,15.07
2023-05-15T23:00:26.378Z,13.20
2023-05-15T23:02:55.548Z,13.82
2023-05-15T23:05:25.025Z,14.98
2023-05-15T23:07:53.840Z,13.88
2023-05-15T23:10:21.994Z,13.88
2023-05-15T23:12:51.028Z,14.10
2023-05-15T23:15:19.214Z,15.20
2023-05-15T23:17:47.726Z,14.02
2023-05-15T23:20:15.970Z,13.90
2023-05-15T23:22:44.319Z,14.13
2023-05-15T23:25:12.604Z,14.70
2023-05-15T23:27:40.838Z,14.18
2023-05-15T23:30:09.918Z,14.55
2023-05-15T23:32:38.474Z,15.57
2023-05-15T23:35:06.855Z,15.50
2023-05-15T23:37:35.129Z,15.90
2023-05-15T23:40:06.156Z,16.63
2023-05-15T23:42:36.326Z,15.75
2023-05-15T23:45:04.367Z,16.08
2023-05-15T23:47:32.780Z,16.40
2023-05-15T23:50:01.473Z,16.85
2023-05-15T23:52:29.971Z,16.75
2023-05-15T23:54:58.664Z,16.05
2023-05-15T23:57:26.973Z,16.98
2023-05-15T23:59:54.916Z,16.90
